YBBN/BNE METAR and TAF weather

Enter ICAO airport designator
Station Type Date Time Source
YBBN METAR 2022/01/19 19:00 UTC NOAA

YBBN 191900Z AUTO 17007KT 4800 +DZ BR SCT006 SCT023 SCT033 22/21 Q1014


Station Type Date Time Source
YBBN Decoded METAR 2022/01/19 19:00 UTC NOAA

Brisbane Airport M. O, Australia (YBBN) 27-23S 153-06E 5M
Jan 19, 2022 - 02:00 PM EST / 2022.01.19 1900 UTC
Wind: from the S (170 degrees) at 8 MPH (7 KT):0
Visibility: 2 mile(s):0
Sky conditions: partly cloudy
Weather: heavy drizzle; mist
Temperature: 71 F (22 C)
Dew Point: 69 F (21 C)
Relative Humidity: 94%
Pressure (altimeter): 29.94 in. Hg (1014 hPa)
ob: YBBN 191900Z AUTO 17007KT 4800 +DZ BR SCT006 SCT023 SCT033 22/21 Q1014
cycle: 19

Station Type Date Time Source
YBBN TAF 2022/01/19 18:31 UTC NOAA

TAF YBBN 191707Z 1918/2100 16008KT 8000 -SHRA FEW008 SCT015 BKN035
FM200000 15018G30KT 9999 -SHRA SCT020 BKN040
FM201000 17013KT 9999 -SHRA SCT020 BKN035
TEMPO 1918/2002 3000 SHRA BKN010 INTER 2002/2100 3000 SHRA BKN010

Example: see airport list